createdAt,value
2018-12-26T00:05:00.869Z,88.40
2018-12-26T00:10:05.341Z,89.58
2018-12-26T00:15:09.744Z,89.51
2018-12-26T00:20:14.155Z,89.01
2018-12-26T00:25:18.789Z,88.20
2018-12-26T00:30:23.041Z,89.22
2018-12-26T00:35:27.716Z,89.22
2018-12-26T00:40:51.046Z,88.61
2018-12-26T00:45:55.311Z,88.69
2018-12-26T00:50:59.555Z,89.88
2018-12-26T00:56:10.472Z,90.18
2018-12-26T01:01:29.155Z,89.38
2018-12-26T01:06:33.510Z,89.02
2018-12-26T01:11:37.842Z,88.25
2018-12-26T01:16:42.096Z,89.47
2018-12-26T01:21:46.372Z,89.12
2018-12-26T01:26:50.706Z,88.69
2018-12-26T01:31:55.081Z,89.50
2018-12-26T01:36:59.326Z,89.37
2018-12-26T01:42:03.813Z,88.86
2018-12-26T01:47:08.079Z,88.79
2018-12-26T01:52:12.352Z,87.89
2018-12-26T01:57:16.803Z,88.38
2018-12-26T02:02:21.142Z,89.39
2018-12-26T02:07:25.501Z,88.96
2018-12-26T02:12:29.771Z,88.96
2018-12-26T02:17:34.135Z,88.87
2018-12-26T02:22:38.499Z,88.38
2018-12-26T02:27:42.801Z,88.57
2018-12-26T02:32:47.351Z,88.16
2018-12-26T02:37:51.700Z,89.14
2018-12-26T02:42:56.069Z,88.62
2018-12-26T02:48:00.324Z,88.56
2018-12-26T02:53:04.642Z,89.28
2018-12-26T02:58:22.124Z,88.42
2018-12-26T03:03:26.425Z,87.55
2018-12-26T03:08:30.675Z,87.97
2018-12-26T03:13:35.062Z,88.70
2018-12-26T03:18:39.316Z,89.00
2018-12-26T03:23:43.571Z,88.20
2018-12-26T03:28:47.863Z,89.15
2018-12-26T03:34:11.546Z,89.06
2018-12-26T03:39:15.802Z,89.69
2018-12-26T03:44:40.401Z,89.10
2018-12-26T03:49:44.924Z,89.14
2018-12-26T03:54:49.294Z,89.31
2018-12-26T04:00:06.541Z,89.42
2018-12-26T04:05:10.783Z,89.13
2018-12-26T04:10:34.119Z,87.64
2018-12-26T04:15:38.518Z,88.07
2018-12-26T04:20:42.779Z,88.55
2018-12-26T04:25:47.071Z,88.94
2018-12-26T04:30:51.603Z,90.27
2018-12-26T04:35:55.964Z,89.92
2018-12-26T04:41:00.392Z,89.37
2018-12-26T04:46:23.747Z,89.78
2018-12-26T04:51:47.166Z,90.28
2018-12-26T04:57:10.673Z,90.19
2018-12-26T05:02:15.257Z,90.01
2018-12-26T05:07:19.978Z,89.76
2018-12-26T05:12:43.570Z,89.03
2018-12-26T05:17:47.890Z,88.54
2018-12-26T05:22:52.302Z,88.85
2018-12-26T05:27:56.667Z,88.86
2018-12-26T05:33:01.183Z,89.13
2018-12-26T05:38:24.610Z,89.52
2018-12-26T05:43:48.229Z,89.69
2018-12-26T05:48:52.502Z,89.33
2018-12-26T05:53:59.184Z,88.86
2018-12-26T05:59:22.543Z,88.59
2018-12-26T06:04:26.834Z,88.57
2018-12-26T06:09:31.098Z,88.90
2018-12-26T06:14:35.387Z,88.78
2018-12-26T06:19:39.767Z,88.55
2018-12-26T06:24:44.000Z,88.74
2018-12-26T06:29:48.258Z,87.99
2018-12-26T06:34:52.682Z,88.29
2018-12-26T06:40:16.100Z,88.77
2018-12-26T06:45:39.424Z,88.98
2018-12-26T06:50:43.677Z,89.05
2018-12-26T06:56:07.367Z,88.15
2018-12-26T07:01:11.644Z,88.13
2018-12-26T07:06:28.531Z,88.37
2018-12-26T07:11:32.967Z,89.43
2018-12-26T07:16:37.332Z,89.53
2018-12-26T07:21:41.762Z,88.58
2018-12-26T07:26:46.020Z,88.22
2018-12-26T07:32:09.370Z,88.49
2018-12-26T07:37:13.891Z,88.66
2018-12-26T07:42:18.352Z,88.77
2018-12-26T07:47:41.686Z,89.03
2018-12-26T07:52:46.165Z,88.67
2018-12-26T07:57:50.713Z,88.89
2018-12-26T08:03:14.076Z,88.92
2018-12-26T08:08:18.523Z,88.72
2018-12-26T08:13:23.097Z,88.50
2018-12-26T08:18:27.386Z,88.66
2018-12-26T08:23:31.721Z,88.78
2018-12-26T08:28:36.039Z,88.32
2018-12-26T08:33:40.445Z,88.60
2018-12-26T08:38:44.707Z,87.44
2018-12-26T08:43:49.066Z,88.75
2018-12-26T08:48:53.352Z,88.81
2018-12-26T08:53:57.696Z,89.53
2018-12-26T08:59:21.071Z,89.14
2018-12-26T09:04:25.464Z,88.56
2018-12-26T09:09:29.899Z,87.84
2018-12-26T09:14:34.240Z,88.06
2018-12-26T09:19:57.578Z,88.33
2018-12-26T09:25:01.876Z,87.58
2018-12-26T09:30:06.944Z,87.46
2018-12-26T09:35:30.532Z,86.79
2018-12-26T09:40:54.170Z,87.42
2018-12-26T09:46:17.600Z,87.55
2018-12-26T09:51:22.109Z,87.04
2018-12-26T09:56:26.536Z,86.95
2018-12-26T10:01:31.046Z,87.55
2018-12-26T10:06:35.759Z,87.23
2018-12-26T10:11:40.277Z,86.08
2018-12-26T10:17:03.695Z,86.48
2018-12-26T10:22:08.003Z,87.20
2018-12-26T10:27:12.457Z,85.82
2018-12-26T10:32:17.750Z,83.78
2018-12-26T10:37:22.317Z,82.93
2018-12-26T10:42:26.675Z,83.88
2018-12-26T10:47:31.341Z,83.30
2018-12-26T10:52:54.654Z,83.44
2018-12-26T10:57:59.032Z,82.85
2018-12-26T11:03:03.467Z,80.84
2018-12-26T11:08:07.917Z,81.75
2018-12-26T11:13:12.488Z,82.75
2018-12-26T11:18:16.921Z,82.33
2018-12-26T11:23:40.242Z,82.90
2018-12-26T11:29:03.568Z,83.31
2018-12-26T11:34:07.839Z,83.36
2018-12-26T11:39:31.345Z,82.66
2018-12-26T11:44:35.840Z,83.16
2018-12-26T11:49:40.936Z,82.22
2018-12-26T11:55:04.326Z,82.09
2018-12-26T12:00:08.690Z,81.69
2018-12-26T12:05:13.180Z,81.03
2018-12-26T12:10:17.618Z,80.48
2018-12-26T12:15:22.052Z,79.78
2018-12-26T12:20:26.482Z,79.29
2018-12-26T12:25:32.023Z,79.48
2018-12-26T12:30:55.357Z,80.05
2018-12-26T12:35:59.819Z,78.62
2018-12-26T12:41:04.181Z,78.26
2018-12-26T12:46:27.491Z,78.04
2018-12-26T12:51:50.822Z,76.78
2018-12-26T12:56:55.239Z,76.61
2018-12-26T13:01:59.722Z,76.72
2018-12-26T13:07:04.191Z,76.41
2018-12-26T13:12:10.979Z,76.17
2018-12-26T13:17:15.442Z,74.78
2018-12-26T13:22:19.917Z,75.10
2018-12-26T13:27:43.242Z,75.13
2018-12-26T13:32:47.689Z,74.57
2018-12-26T13:38:11.200Z,74.96
2018-12-26T13:43:34.609Z,73.76
2018-12-26T13:48:58.294Z,72.37
2018-12-26T13:54:03.013Z,72.57
2018-12-26T13:59:07.276Z,71.41
2018-12-26T14:04:11.541Z,70.02
2018-12-26T14:09:34.873Z,72.38
2018-12-26T14:14:58.181Z,72.08
2018-12-26T14:20:02.473Z,72.63
2018-12-26T14:25:07.542Z,72.97
2018-12-26T14:30:30.868Z,73.09
2018-12-26T14:35:35.214Z,74.49
2018-12-26T14:40:39.726Z,74.88
2018-12-26T14:46:03.150Z,75.12
2018-12-26T14:51:07.583Z,75.71
2018-12-26T14:56:31.189Z,74.68
2018-12-26T15:01:35.744Z,73.65
2018-12-26T15:06:59.073Z,72.93
2018-12-26T15:12:03.343Z,73.55
2018-12-26T15:17:07.773Z,74.06
2018-12-26T15:22:26.465Z,73.75
2018-12-26T15:27:30.865Z,73.38
2018-12-26T15:32:35.135Z,75.00
2018-12-26T15:37:39.646Z,75.17
2018-12-26T15:43:02.957Z,76.12
2018-12-26T15:53:19.195Z,78.71
2018-12-26T15:58:42.785Z,79.33
2018-12-26T16:04:06.114Z,80.36
2018-12-26T16:09:10.354Z,81.02
2018-12-26T16:14:14.666Z,82.17
2018-12-26T16:19:38.319Z,82.75
2018-12-26T16:24:55.610Z,82.09
2018-12-26T16:29:59.926Z,82.76
2018-12-26T16:35:24.731Z,82.71
2018-12-26T16:40:48.068Z,83.17
2018-12-26T16:45:52.317Z,83.59
2018-12-26T16:50:56.693Z,83.89
2018-12-26T16:56:01.096Z,84.75
2018-12-26T17:01:05.493Z,84.75
2018-12-26T17:06:09.966Z,85.47
2018-12-26T17:11:14.363Z,85.57
2018-12-26T17:16:18.777Z,85.31
2018-12-26T17:21:23.211Z,85.89
2018-12-26T17:26:27.706Z,86.68
2018-12-26T17:31:32.089Z,86.85
2018-12-26T17:36:36.592Z,86.69
2018-12-26T17:41:40.989Z,86.89
2018-12-26T17:46:46.217Z,86.86
2018-12-26T17:52:09.543Z,87.55
2018-12-26T17:57:18.396Z,87.75
2018-12-26T18:02:43.169Z,87.75
2018-12-26T18:08:07.260Z,87.92
2018-12-26T18:18:22.384Z,88.09
2018-12-26T18:23:26.762Z,87.68
2018-12-26T18:28:31.294Z,87.67
2018-12-26T18:33:35.621Z,88.38
2018-12-26T18:38:39.870Z,88.19
2018-12-26T18:43:44.194Z,88.67
2018-12-26T18:48:48.639Z,89.00
2018-12-26T18:54:12.035Z,88.91
2018-12-26T18:59:16.378Z,88.68
2018-12-26T19:04:39.719Z,88.86
2018-12-26T19:09:44.400Z,88.80
2018-12-26T19:15:08.266Z,88.73
2018-12-26T19:20:12.734Z,89.11
2018-12-26T19:25:17.108Z,89.05
2018-12-26T19:30:21.393Z,89.54
2018-12-26T19:35:25.667Z,89.81
2018-12-26T19:40:30.113Z,89.16
2018-12-26T19:45:34.544Z,89.22
2018-12-26T19:50:38.803Z,89.29
2018-12-26T19:55:43.163Z,89.63
2018-12-26T20:00:47.512Z,89.15
2018-12-26T20:05:54.375Z,89.66
2018-12-26T20:11:00.089Z,90.40
2018-12-26T20:16:04.362Z,89.99
2018-12-26T20:21:27.679Z,90.27
2018-12-26T20:26:32.469Z,90.36
2018-12-26T20:31:37.481Z,89.74
2018-12-26T20:36:41.928Z,89.67
2018-12-26T20:41:47.134Z,90.45
2018-12-26T20:46:51.818Z,90.76
2018-12-26T20:52:16.053Z,90.12
2018-12-26T20:57:39.510Z,90.54
2018-12-26T21:02:44.395Z,90.58
2018-12-26T21:07:49.792Z,90.51
2018-12-26T21:12:54.197Z,90.40
2018-12-26T21:18:17.546Z,90.12
2018-12-26T21:23:40.969Z,90.08
2018-12-26T21:29:04.994Z,90.45
2018-12-26T21:34:23.685Z,90.50
2018-12-26T21:39:42.312Z,90.43
2018-12-26T21:44:46.763Z,90.57
2018-12-26T21:49:52.100Z,91.39
2018-12-26T21:54:56.630Z,91.65
2018-12-26T22:00:01.143Z,90.90
2018-12-26T22:05:24.787Z,90.63
2018-12-26T22:10:31.006Z,90.96
2018-12-26T22:15:35.786Z,91.20
2018-12-26T22:20:40.612Z,91.11
2018-12-26T22:25:45.330Z,91.64
2018-12-26T22:31:08.672Z,91.62
2018-12-26T22:36:16.078Z,91.04
2018-12-26T22:41:20.516Z,90.60
2018-12-26T22:46:24.794Z,90.85
2018-12-26T22:51:29.204Z,90.45
2018-12-26T22:56:33.625Z,90.60
2018-12-26T23:01:38.068Z,90.79
2018-12-26T23:07:01.668Z,91.11
2018-12-26T23:12:05.998Z,91.55
2018-12-26T23:17:10.408Z,91.65
2018-12-26T23:22:15.269Z,91.74
2018-12-26T23:27:38.613Z,91.83
2018-12-26T23:32:47.007Z,91.55
2018-12-26T23:37:50.013Z,91.65
2018-12-26T23:42:54.385Z,91.76
2018-12-26T23:48:01.315Z,91.94
2018-12-26T23:53:05.836Z,91.65
2018-12-26T23:58:11.583Z,91.62
